Bruk link Alternativ webside om du vil se statistikk,rapport,graf,analyse og mye mer.

Lynradar: storm image Ingen tordenbyger registrert..



Vårt webkamera mer informasjon My webcam


Kamera på Foreneset mer informasjon webcam on foreneset


Nedbørsradar  rain snow radar


Besøk vår andre værside:

Alternativ webside

iphone versjon

Nettbrett versjon

Foreneset
verstasjon



Ikke nødvendig med spesiell oppmerksomhet.    Det er ingen advarsler

Nære METAR rapporter

     
ENZV - Stavanger
oppdatert: 16-09-2021 16:20
For det meste skyet  
For det meste skyet  
   Vind: VNV 3.6 m/s
Vind: VNV 3.6 m/s
Temperatur: 15°C
Duggpunkt: 11°C
Fuktighet: 77%
Barometer: 1015 hPa
Skyer: For det meste skyet
Sikt: mer enn 10 km
Skydetaljer: Få Skyer 1371.6 m,
For det meste skyet 1828.8 m
ENZV 161420Z 30007KT 9999 FEW045 BKN060 15/11 Q1015 NOSIG
ENHD - Haugesund
oppdatert: 16-09-2021 16:50
For det meste skyet  
For det meste skyet  
   Vind: VEST 1.5 m/s
Vind: VEST 1.5 m/s
Temperatur: 14°C
Duggpunkt: 12°C
Fuktighet: 88%
Barometer: 1015 hPa
Skyer: For det meste skyet
Sikt: mer enn 10 km
Skydetaljer: Få Skyer 1066.8 m,
For det meste skyet 1524 m
ENHD 161450Z 27003KT 9999 FEW035 BKN050 14/12 Q1015
ENBR - Bergen
oppdatert: 16-09-2021 16:50
For det meste skyet  
For det meste skyet  
   Vind: SØ 2.1 m/s
Vind: SØ 2.1 m/s
Temperatur: 15°C
Duggpunkt: 12°C
Fuktighet: 82%
Barometer: 1015 hPa
Skyer: For det meste skyet
Sikt: mer enn 10 km
Skydetaljer: Få Skyer 426.7 m,
Få Skyer 1219.2 m,
For det meste skyet 1828.8 m
ENBR 161450Z 13004KT 9999 FEW014 FEW040 BKN060 15/12 Q1015 NOSIG RMK WIND 1200FT 14003KT
ENCN - Kristiansand
oppdatert: 16-09-2021 16:50
For det meste skyet  
For det meste skyet  
   Vind: NØ 7.2 m/s
Vind: NØ 7.2 m/s
Temperatur: 13°C
Duggpunkt: 8°C
Fuktighet: 72%
Barometer: 1015 hPa
Skyer: For det meste skyet
Sikt: mer enn 10 km
Skydetaljer: For det meste skyet 731.5 m
ENCN 161450Z 04014KT 9999 BKN024 13/08 Q1015
ENGM - Oslo
oppdatert: 16-09-2021 16:50
For det meste skyet  
For det meste skyet  
   Vind: NNØ 5.1 m/s
Vind: NNØ 5.1 m/s
Temperatur: 11°C
Duggpunkt: 4°C
Fuktighet: 62%
Barometer: 1017 hPa
Skyer: For det meste skyet
Sikt: mer enn 10 km
Skydetaljer: Få Skyer 944.9 m,
For det meste skyet 2560.3 m
ENGM 161450Z 02010KT 9999 FEW031 BKN084 11/04 Q1017 NOSIG
ENVA - Trondheim
oppdatert: 16-09-2021 16:50
Klart  
Klart  
   Vind: varierer 0.5 m/s
Vind: varierer 0.5 m/s
Temperatur: 15°C
Duggpunkt: 11°C
Fuktighet: 77%
Barometer: 1016 hPa
Sikt: mer enn 10 km
Skydetaljer: Klart
ENVA 161450Z VRB01KT CAVOK 15/11 Q1016 NOSIG RMK WIND 670FT 16009KT
    

Script utviklet av  Saratoga-weather.org Tilrettelagt for malen av  Weerstation Leuven

Du finner vår vær info også på:

UK Metoffice

European Weather Network

WeatherCloud

Weather Underground

Utstyr vi bruker:

Værstsjon
Davis VP2

Værprogram
Weather Display

Davis VP2

Weather Display